Wetterdaten: Woche 17.10.11 - 23.10.11 (KW42)
Datum Zeit Temp. Innen Temp. Aussen UV X Diff Temp. Feuchte Inne Feuchte Auss Sonnenschein Luftdruck Regen ab 0,1 Wind Sonnenschein T Regendauer Windben
17.10.2011 00:00 18,2 C 5,8 C 0,0 UV-I 0,0 C 49 % 87 % 0 % 1022,5 hPa 0,0 l/m 0,2 km/h (0 Bft) 0,00 h 0,00 h 0,3 km/h (0 Bft)
17.10.2011 01:00 18,1 C 5,7 C 0,0 UV-I 0,0 C 49 % 89 % 0 % 1022,3 hPa 0,0 l/m 0,7 km/h (0 Bft) 0,00 h 0,00 h 1,5 km/h (1 Bft)
17.10.2011 02:00 18,1 C 6,5 C 0,0 UV-I 0,0 C 50 % 89 % 0 % 1022,6 hPa 0,0 l/m 1,1 km/h (1 Bft) 0,00 h 0,00 h 1,5 km/h (1 Bft)
17.10.2011 03:00 18,0 C 7,0 C 0,0 UV-I 0,0 C 50 % 89 % 0 % 1022,2 hPa 0,0 l/m 1,8 km/h (1 Bft) 0,00 h 0,00 h 2,8 km/h (1 Bft)
17.10.2011 04:00 18,0 C 7,1 C 0,0 UV-I 0,0 C 50 % 89 % 0 % 1021,8 hPa 0,0 l/m 0,9 km/h (0 Bft) 0,00 h 0,00 h 1,6 km/h (1 Bft)
17.10.2011 05:00 17,9 C 7,3 C 0,0 UV-I 0,0 C 51 % 90 % 0 % 1021,7 hPa 0,0 l/m 2,3 km/h (1 Bft) 0,00 h 0,00 h 3,0 km/h (1 Bft)
17.10.2011 06:00 17,9 C 7,1 C 0,0 UV-I 0,0 C 51 % 90 % 0 % 1021,4 hPa 0,0 l/m 3,0 km/h (1 Bft) 0,00 h 0,00 h 3,9 km/h (1 Bft)
17.10.2011 07:00 17,8 C 7,0 C 0,0 UV-I 0,0 C 51 % 90 % 0 % 1021,3 hPa 0,0 l/m 2,6 km/h (1 Bft) 0,00 h 0,00 h 3,7 km/h (1 Bft)
17.10.2011 08:00 17,7 C 7,2 C 0,0 UV-I 0,0 C 51 % 90 % 0 % 1021,4 hPa 0,0 l/m 2,1 km/h (1 Bft) 0,00 h 0,00 h 2,5 km/h (1 Bft)
17.10.2011 09:00 17,8 C 8,0 C 0,0 UV-I 0,3 C 52 % 91 % 9 % 1021,6 hPa 0,0 l/m 2,4 km/h (1 Bft) 0,00 h 0,00 h 3,0 km/h (1 Bft)
17.10.2011 10:00 17,9 C 10,5 C 0,2 UV-I 4,8 C 52 % 90 % 96 % 1021,5 hPa 0,0 l/m 1,4 km/h (1 Bft) 0,93 h 0,00 h 1,6 km/h (1 Bft)
17.10.2011 11:00 18,2 C 12,5 C 0,1 UV-I 1,5 C 52 % 84 % 42 % 1021,6 hPa 0,0 l/m 2,4 km/h (1 Bft) 0,00 h 0,00 h 3,5 km/h (1 Bft)
17.10.2011 12:00 18,6 C 14,0 C 1,6 UV-I 4,1 C 52 % 78 % 88 % 1021,4 hPa 0,0 l/m 3,0 km/h (1 Bft) 0,70 h 0,00 h 3,7 km/h (1 Bft)
17.10.2011 13:00 19,1 C 15,4 C 1,0 UV-I 3,7 C 52 % 73 % 86 % 1021,2 hPa 0,0 l/m 2,5 km/h (1 Bft) 0,53 h 0,00 h 3,8 km/h (1 Bft)
17.10.2011 14:00 19,6 C 16,0 C 1,7 UV-I 3,5 C 51 % 72 % 84 % 1020,6 hPa 0,0 l/m 3,3 km/h (1 Bft) 0,57 h 0,00 h 4,4 km/h (1 Bft)
17.10.2011 15:00 21,0 C 16,9 C 1,2 UV-I 3,6 C 50 % 69 % 85 % 1020,8 hPa 0,0 l/m 3,7 km/h (1 Bft) 0,57 h 0,00 h 4,6 km/h (1 Bft)
17.10.2011 16:00 21,2 C 16,2 C 0,4 UV-I 1,8 C 49 % 71 % 50 % 1019,9 hPa 0,0 l/m 3,5 km/h (1 Bft) 0,17 h 0,00 h 4,7 km/h (1 Bft)
17.10.2011 17:00 21,2 C 15,5 C 0,1 UV-I 0,3 C 49 % 74 % 9 % 1019,1 hPa 0,0 l/m 1,7 km/h (1 Bft) 0,00 h 0,00 h 2,6 km/h (1 Bft)
17.10.2011 18:00 20,5 C 14,4 C 0,0 UV-I 0,0 C 51 % 76 % 0 % 1018,7 hPa 0,0 l/m 0,5 km/h (0 Bft) 0,00 h 0,00 h 0,6 km/h (0 Bft)
17.10.2011 19:00 19,8 C 13,0 C 0,0 UV-I 0,0 C 52 % 79 % 0 % 1018,4 hPa 0,0 l/m 0,4 km/h (0 Bft) 0,00 h 0,00 h 0,6 km/h (0 Bft)
17.10.2011 20:00 19,3 C 12,1 C 0,0 UV-I 0,0 C 54 % 83 % 0 % 1017,7 hPa 0,0 l/m 1,1 km/h (1 Bft) 0,00 h 0,00 h 1,9 km/h (1 Bft)
17.10.2011 21:00 19,2 C 12,4 C 0,0 UV-I 0,0 C 55 % 85 % 0 % 1017,1 hPa 0,0 l/m 1,2 km/h (1 Bft) 0,00 h 0,00 h 1,9 km/h (1 Bft)
17.10.2011 22:00 19,2 C 12,9 C 0,0 UV-I 0,0 C 55 % 83 % 0 % 1016,3 hPa 0,0 l/m 3,4 km/h (1 Bft) 0,00 h 0,00 h 3,9 km/h (1 Bft)
17.10.2011 23:00 19,2 C 13,0 C 0,0 UV-I 0,0 C 55 % 81 % 0 % 1015,6 hPa 0,0 l/m 4,5 km/h (1 Bft) 0,00 h 0,00 h 6,9 km/h (2 Bft)
18.10.2011 00:00 19,0 C 12,0 C 0,0 UV-I 0,0 C 54 % 82 % 0 % 1014,6 hPa 0,0 l/m 5,5 km/h (1 Bft) 0,00 h 0,00 h 6,1 km/h (2 Bft)
18.10.2011 01:00 18,8 C 11,6 C 0,0 UV-I 0,0 C 55 % 84 % 0 % 1013,7 hPa 0,0 l/m 5,2 km/h (1 Bft) 0,00 h 0,00 h 5,1 km/h (1 Bft)
18.10.2011 02:00 18,7 C 10,9 C 0,0 UV-I 0,0 C 55 % 84 % 0 % 1012,5 hPa 0,0 l/m 4,4 km/h (1 Bft) 0,00 h 0,00 h 5,5 km/h (1 Bft)
18.10.2011 03:00 18,6 C 10,1 C 0,0 UV-I 0,0 C 55 % 85 % 0 % 1011,4 hPa 0,0 l/m 3,5 km/h (1 Bft) 0,00 h 0,00 h 4,3 km/h (1 Bft)
18.10.2011 04:00 18,5 C 9,6 C 0,0 UV-I 0,0 C 55 % 86 % 0 % 1010,3 hPa 0,0 l/m 2,1 km/h (1 Bft) 0,00 h 0,00 h 3,3 km/h (1 Bft)
18.10.2011 05:00 18,4 C 10,0 C 0,0 UV-I 0,0 C 55 % 88 % 0 % 1009,3 hPa 0,0 l/m 3,6 km/h (1 Bft) 0,00 h 0,00 h 4,7 km/h (1 Bft)
18.10.2011 06:00 18,4 C 11,8 C 0,0 UV-I 0,0 C 56 % 86 % 0 % 1008,4 hPa 0,0 l/m 4,1 km/h (1 Bft) 0,00 h 0,00 h 5,6 km/h (1 Bft)
18.10.2011 07:00 18,4 C 13,0 C 0,0 UV-I 0,0 C 56 % 83 % 0 % 1007,3 hPa 0,0 l/m 7,3 km/h (2 Bft) 0,00 h 0,00 h 8,1 km/h (2 Bft)
18.10.2011 08:00 18,6 C 13,8 C 0,0 UV-I 0,0 C 56 % 79 % 0 % 1006,8 hPa 0,0 l/m 9,0 km/h (2 Bft) 0,00 h 0,00 h 11,3 km/h (2 Bft)
18.10.2011 09:00 18,9 C 14,0 C 0,0 UV-I 0,0 C 55 % 78 % 0 % 1006,6 hPa 0,0 l/m 10,3 km/h (2 Bft) 0,00 h 0,00 h 12,6 km/h (3 Bft)
18.10.2011 10:00 19,0 C 13,4 C 0,0 UV-I 0,0 C 56 % 81 % 0 % 1007,2 hPa 0,7 l/m 9,0 km/h (2 Bft) 0,00 h 0,53 h 10,2 km/h (2 Bft)
18.10.2011 11:00 18,8 C 10,2 C 0,0 UV-I 0,0 C 57 % 86 % 0 % 1008,9 hPa 1,6 l/m 6,6 km/h (2 Bft) 0,00 h 0,77 h 7,8 km/h (2 Bft)
18.10.2011 12:00 18,5 C 8,9 C 0,0 UV-I 0,0 C 56 % 89 % 0 % 1009,6 hPa 0,5 l/m 4,1 km/h (1 Bft) 0,00 h 0,73 h 5,1 km/h (1 Bft)
18.10.2011 13:00 18,3 C 8,7 C 0,0 UV-I 0,0 C 56 % 89 % 0 % 1009,9 hPa 1,2 l/m 2,7 km/h (1 Bft) 0,00 h 0,93 h 3,2 km/h (1 Bft)
18.10.2011 14:00 18,2 C 8,7 C 0,0 UV-I 0,0 C 56 % 90 % 0 % 1009,9 hPa 0,4 l/m 5,3 km/h (1 Bft) 0,00 h 0,27 h 6,8 km/h (2 Bft)
18.10.2011 15:00 18,2 C 8,9 C 0,0 UV-I 0,0 C 55 % 90 % 0 % 1009,6 hPa 0,0 l/m 4,4 km/h (1 Bft) 0,00 h 0,07 h 5,1 km/h (1 Bft)
18.10.2011 16:00 18,2 C 9,2 C 0,0 UV-I 0,0 C 54 % 89 % 0 % 1009,7 hPa 0,0 l/m 6,4 km/h (2 Bft) 0,00 h 0,00 h 7,3 km/h (2 Bft)
18.10.2011 17:00 18,1 C 9,2 C 0,0 UV-I 0,0 C 53 % 88 % 0 % 1010,0 hPa 0,0 l/m 4,6 km/h (1 Bft) 0,00 h 0,00 h 5,2 km/h (1 Bft)
18.10.2011 18:00 17,9 C 8,8 C 0,0 UV-I 0,0 C 54 % 87 % 0 % 1009,9 hPa 0,0 l/m 3,0 km/h (1 Bft) 0,00 h 0,00 h 5,2 km/h (1 Bft)
18.10.2011 19:00 17,7 C 8,5 C 0,0 UV-I 0,0 C 54 % 88 % 0 % 1010,1 hPa 0,0 l/m 2,6 km/h (1 Bft) 0,00 h 0,00 h 3,1 km/h (1 Bft)
18.10.2011 20:00 17,6 C 8,4 C 0,0 UV-I 0,0 C 54 % 88 % 0 % 1010,2 hPa 0,0 l/m 2,9 km/h (1 Bft) 0,00 h 0,00 h 3,4 km/h (1 Bft)
18.10.2011 21:00 17,5 C 8,4 C 0,0 UV-I 0,0 C 54 % 88 % 0 % 1010,2 hPa 0,0 l/m 3,0 km/h (1 Bft) 0,00 h 0,00 h 4,4 km/h (1 Bft)
18.10.2011 22:00 17,4 C 8,6 C 0,0 UV-I 0,0 C 54 % 87 % 0 % 1010,1 hPa 0,0 l/m 3,8 km/h (1 Bft) 0,00 h 0,00 h 5,4 km/h (1 Bft)
18.10.2011 23:00 17,4 C 8,9 C 0,0 UV-I 0,0 C 54 % 87 % 0 % 1010,1 hPa 0,0 l/m 3,3 km/h (1 Bft) 0,00 h 0,00 h 4,0 km/h (1 Bft)
19.10.2011 00:00 17,2 C 8,9 C 0,0 UV-I 0,0 C 54 % 87 % 0 % 1009,9 hPa 0,0 l/m 2,5 km/h (1 Bft) 0,00 h 0,00 h 3,8 km/h (1 Bft)
19.10.2011 01:00 17,2 C 9,0 C 0,0 UV-I 0,0 C 54 % 87 % 0 % 1009,6 hPa 0,0 l/m 2,6 km/h (1 Bft) 0,00 h 0,00 h 4,2 km/h (1 Bft)
19.10.2011 02:00 17,2 C 9,1 C 0,0 UV-I 0,0 C 54 % 86 % 0 % 1009,8 hPa 0,0 l/m 3,5 km/h (1 Bft) 0,00 h 0,00 h 6,0 km/h (2 Bft)
19.10.2011 03:00 17,2 C 9,0 C 0,0 UV-I 0,0 C 54 % 85 % 0 % 1009,9 hPa 0,0 l/m 3,5 km/h (1 Bft) 0,00 h 0,00 h 4,7 km/h (1 Bft)
19.10.2011 04:00 17,2 C 8,8 C 0,0 UV-I 0,0 C 54 % 84 % 0 % 1010,0 hPa 0,0 l/m 2,7 km/h (1 Bft) 0,00 h 0,00 h 3,9 km/h (1 Bft)
19.10.2011 05:00 17,2 C 8,8 C 0,0 UV-I 0,0 C 53 % 84 % 0 % 1010,2 hPa 0,0 l/m 3,0 km/h (1 Bft) 0,00 h 0,00 h 4,1 km/h (1 Bft)
19.10.2011 06:00 17,1 C 8,4 C 0,0 UV-I 0,0 C 53 % 84 % 0 % 1010,3 hPa 0,0 l/m 2,2 km/h (1 Bft) 0,00 h 0,00 h 3,1 km/h (1 Bft)
19.10.2011 07:00 17,1 C 8,0 C 0,0 UV-I 0,0 C 53 % 85 % 0 % 1010,9 hPa 0,0 l/m 2,0 km/h (1 Bft) 0,00 h 0,00 h 2,5 km/h (1 Bft)
19.10.2011 08:00 17,0 C 7,6 C 0,0 UV-I 0,0 C 53 % 86 % 0 % 1011,2 hPa 0,0 l/m 2,0 km/h (1 Bft) 0,00 h 0,00 h 3,1 km/h (1 Bft)
19.10.2011 09:00 16,9 C 7,8 C 0,0 UV-I 0,9 C 53 % 86 % 22 % 1011,8 hPa 0,0 l/m 3,2 km/h (1 Bft) 0,20 h 0,03 h 4,0 km/h (1 Bft)
19.10.2011 10:00 17,0 C 9,3 C 0,4 UV-I 5,1 C 53 % 84 % 100 % 1012,1 hPa 0,0 l/m 4,9 km/h (1 Bft) 1,00 h 0,00 h 6,2 km/h (2 Bft)
19.10.2011 11:00 17,1 C 10,1 C 0,4 UV-I 3,1 C 53 % 83 % 64 % 1012,7 hPa 0,1 l/m 4,5 km/h (1 Bft) 0,53 h 0,40 h 4,7 km/h (1 Bft)
19.10.2011 12:00 17,4 C 11,8 C 2,0 UV-I 5,3 C 53 % 78 % 100 % 1013,0 hPa 0,0 l/m 6,4 km/h (2 Bft) 1,00 h 0,00 h 7,4 km/h (2 Bft)
19.10.2011 13:00 18,0 C 12,6 C 2,2 UV-I 4,0 C 52 % 72 % 90 % 1013,4 hPa 0,0 l/m 7,6 km/h (2 Bft) 0,73 h 0,00 h 10,7 km/h (2 Bft)
19.10.2011 14:00 19,2 C 12,9 C 1,7 UV-I 3,2 C 49 % 68 % 85 % 1014,2 hPa 0,0 l/m 9,1 km/h (2 Bft) 0,63 h 0,00 h 8,5 km/h (2 Bft)
19.10.2011 15:00 19,9 C 12,8 C 1,1 UV-I 2,8 C 47 % 66 % 78 % 1014,5 hPa 0,0 l/m 8,1 km/h (2 Bft) 0,47 h 0,00 h 8,6 km/h (2 Bft)
19.10.2011 16:00 20,8 C 12,5 C 0,4 UV-I 2,0 C 45 % 64 % 56 % 1015,3 hPa 0,1 l/m 6,7 km/h (2 Bft) 0,43 h 0,13 h 8,4 km/h (2 Bft)
19.10.2011 17:00 20,5 C 9,3 C 0,0 UV-I 0,0 C 44 % 74 % 0 % 1015,9 hPa 0,2 l/m 0,5 km/h (0 Bft) 0,00 h 0,07 h 1,1 km/h (0 Bft)
19.10.2011 18:00 19,9 C 8,8 C 0,0 UV-I 0,0 C 44 % 79 % 0 % 1016,5 hPa 0,0 l/m 1,7 km/h (1 Bft) 0,00 h 0,10 h 2,4 km/h (1 Bft)
19.10.2011 19:00 19,6 C 8,4 C 0,0 UV-I 0,0 C 46 % 83 % 0 % 1018,0 hPa 0,4 l/m 1,7 km/h (1 Bft) 0,00 h 0,40 h 2,2 km/h (1 Bft)
19.10.2011 20:00 19,2 C 7,7 C 0,0 UV-I 0,0 C 47 % 84 % 0 % 1018,8 hPa 0,4 l/m 1,0 km/h (0 Bft) 0,00 h 0,67 h 1,0 km/h (0 Bft)
19.10.2011 21:00 18,7 C 7,1 C 0,0 UV-I 0,0 C 47 % 87 % 0 % 1018,7 hPa 0,0 l/m 0,2 km/h (0 Bft) 0,00 h 0,00 h 0,2 km/h (0 Bft)
19.10.2011 22:00 18,3 C 6,8 C 0,0 UV-I 0,0 C 48 % 88 % 0 % 1018,8 hPa 0,0 l/m 0,7 km/h (0 Bft) 0,00 h 0,00 h 1,2 km/h (1 Bft)
19.10.2011 23:00 17,9 C 6,5 C 0,0 UV-I 0,0 C 48 % 88 % 0 % 1018,9 hPa 0,0 l/m 0,8 km/h (0 Bft) 0,00 h 0,00 h 1,5 km/h (1 Bft)
20.10.2011 00:00 17,6 C 6,0 C 0,0 UV-I 0,0 C 47 % 89 % 0 % 1019,0 hPa 0,0 l/m 1,4 km/h (1 Bft) 0,00 h 0,00 h 2,8 km/h (1 Bft)
20.10.2011 01:00 17,3 C 5,7 C 0,0 UV-I 0,0 C 47 % 89 % 0 % 1019,3 hPa 0,0 l/m 1,7 km/h (1 Bft) 0,00 h 0,00 h 2,8 km/h (1 Bft)
20.10.2011 02:00 17,5 C 5,5 C 0,0 UV-I 0,0 C 47 % 89 % 0 % 1019,8 hPa 0,0 l/m 0,2 km/h (0 Bft) 0,00 h 0,00 h 0,1 km/h (0 Bft)
20.10.2011 03:00 17,6 C 5,4 C 0,0 UV-I 0,0 C 47 % 89 % 0 % 1020,2 hPa 0,0 l/m 0,3 km/h (0 Bft) 0,00 h 0,00 h 0,9 km/h (0 Bft)
20.10.2011 04:00 17,6 C 4,9 C 0,0 UV-I 0,0 C 47 % 90 % 0 % 1020,7 hPa 0,0 l/m 0,3 km/h (0 Bft) 0,00 h 0,00 h 0,6 km/h (0 Bft)
20.10.2011 05:00 17,3 C 5,3 C 0,0 UV-I 0,0 C 47 % 91 % 0 % 1020,7 hPa 0,0 l/m 1,7 km/h (1 Bft) 0,00 h 0,00 h 1,9 km/h (1 Bft)
20.10.2011 06:00 17,1 C 5,0 C 0,0 UV-I 0,0 C 47 % 91 % 0 % 1021,2 hPa 0,1 l/m 0,8 km/h (0 Bft) 0,00 h 0,00 h 1,0 km/h (0 Bft)
20.10.2011 07:00 16,9 C 4,8 C 0,0 UV-I 0,0 C 48 % 92 % 0 % 1021,7 hPa 0,0 l/m 2,4 km/h (1 Bft) 0,00 h 0,40 h 3,9 km/h (1 Bft)
20.10.2011 08:00 16,5 C 5,2 C 0,0 UV-I 0,0 C 49 % 92 % 0 % 1022,1 hPa 0,1 l/m 2,1 km/h (1 Bft) 0,00 h 0,73 h 2,0 km/h (1 Bft)
20.10.2011 09:00 16,4 C 5,5 C 0,0 UV-I 0,9 C 50 % 92 % 26 % 1022,6 hPa 0,0 l/m 2,0 km/h (1 Bft) 0,30 h 0,00 h 2,3 km/h (1 Bft)
20.10.2011 10:00 16,5 C 6,7 C 0,2 UV-I 5,5 C 50 % 91 % 100 % 1023,4 hPa 0,0 l/m 2,4 km/h (1 Bft) 1,00 h 0,03 h 3,4 km/h (1 Bft)
20.10.2011 11:00 16,6 C 8,2 C 0,4 UV-I 4,0 C 51 % 89 % 82 % 1023,7 hPa 0,0 l/m 3,1 km/h (1 Bft) 0,57 h 0,00 h 4,2 km/h (1 Bft)
20.10.2011 12:00 16,9 C 10,2 C 2,0 UV-I 6,7 C 50 % 80 % 100 % 1024,2 hPa 0,0 l/m 5,0 km/h (1 Bft) 1,00 h 0,00 h 6,7 km/h (2 Bft)
20.10.2011 13:00 17,7 C 11,1 C 2,9 UV-I 5,6 C 49 % 73 % 100 % 1024,6 hPa 0,0 l/m 6,2 km/h (2 Bft) 1,00 h 0,00 h 6,5 km/h (2 Bft)
20.10.2011 14:00 18,7 C 10,7 C 1,4 UV-I 3,3 C 47 % 71 % 77 % 1025,6 hPa 0,0 l/m 6,1 km/h (2 Bft) 0,30 h 0,00 h 7,9 km/h (2 Bft)
20.10.2011 15:00 18,9 C 10,4 C 0,8 UV-I 2,1 C 46 % 71 % 59 % 1024,9 hPa 0,0 l/m 6,1 km/h (2 Bft) 0,17 h 0,00 h 6,9 km/h (2 Bft)
20.10.2011 16:00 18,7 C 10,1 C 0,3 UV-I 1,0 C 46 % 72 % 28 % 1025,2 hPa 0,0 l/m 4,0 km/h (1 Bft) 0,00 h 0,00 h 4,7 km/h (1 Bft)
20.10.2011 17:00 18,5 C 9,6 C 0,0 UV-I 0,2 C 46 % 73 % 6 % 1025,1 hPa 0,0 l/m 2,5 km/h (1 Bft) 0,00 h 0,00 h 3,2 km/h (1 Bft)
20.10.2011 18:00 18,1 C 8,7 C 0,0 UV-I 0,0 C 47 % 77 % 0 % 1025,3 hPa 0,0 l/m 0,6 km/h (0 Bft) 0,00 h 0,00 h 0,6 km/h (0 Bft)
20.10.2011 19:00 17,6 C 7,8 C 0,0 UV-I 0,0 C 48 % 80 % 0 % 1025,7 hPa 0,0 l/m 0,0 km/h (0 Bft) 0,00 h 0,00 h 0,0 km/h (0 Bft)
20.10.2011 20:00 17,2 C 6,9 C 0,0 UV-I 0,0 C 49 % 82 % 0 % 1026,0 hPa 0,0 l/m 0,0 km/h (0 Bft) 0,00 h 0,00 h 0,0 km/h (0 Bft)
20.10.2011 21:00 17,0 C 5,9 C 0,0 UV-I 0,0 C 50 % 84 % 0 % 1026,0 hPa 0,0 l/m 0,0 km/h (0 Bft) 0,00 h 0,03 h 0,0 km/h (0 Bft)
20.10.2011 22:00 16,8 C 5,0 C 0,0 UV-I 0,0 C 50 % 86 % 0 % 1026,4 hPa 0,0 l/m 0,1 km/h (0 Bft) 0,00 h 0,00 h 0,0 km/h (0 Bft)
20.10.2011 23:00 16,7 C 4,2 C 0,0 UV-I 0,0 C 50 % 87 % 0 % 1026,7 hPa 0,0 l/m 0,0 km/h (0 Bft) 0,00 h 0,10 h 0,0 km/h (0 Bft)
21.10.2011 00:00 16,5 C 3,9 C 0,0 UV-I 0,0 C 49 % 88 % 0 % 1026,6 hPa 0,0 l/m 0,0 km/h (0 Bft) 0,00 h 0,03 h 0,1 km/h (0 Bft)
21.10.2011 01:00 16,4 C 3,7 C 0,0 UV-I 0,0 C 50 % 89 % 0 % 1026,5 hPa 0,0 l/m 0,0 km/h (0 Bft) 0,00 h 0,03 h 0,4 km/h (0 Bft)
21.10.2011 02:00 16,3 C 3,1 C 0,0 UV-I 0,0 C 49 % 89 % 0 % 1026,4 hPa 0,0 l/m 0,0 km/h (0 Bft) 0,00 h 0,03 h 0,0 km/h (0 Bft)
21.10.2011 03:00 16,2 C 2,7 C 0,0 UV-I 0,0 C 49 % 89 % 0 % 1026,2 hPa 0,0 l/m 0,0 km/h (0 Bft) 0,00 h 0,03 h 0,0 km/h (0 Bft)
21.10.2011 04:00 16,0 C 2,6 C 0,0 UV-I 0,0 C 48 % 90 % 0 % 1026,7 hPa 0,0 l/m 0,0 km/h (0 Bft) 0,00 h 0,00 h 0,0 km/h (0 Bft)
21.10.2011 05:00 16,0 C 2,0 C 0,0 UV-I 0,0 C 48 % 89 % 0 % 1026,3 hPa 0,0 l/m 0,0 km/h (0 Bft) 0,00 h 0,00 h 0,0 km/h (0 Bft)
21.10.2011 06:00 15,9 C 1,3 C 0,0 UV-I 0,0 C 48 % 90 % 0 % 1026,2 hPa 0,0 l/m 0,5 km/h (0 Bft) 0,00 h 0,03 h 1,5 km/h (1 Bft)
21.10.2011 07:00 15,8 C 1,0 C 0,0 UV-I 0,0 C 48 % 90 % 0 % 1026,3 hPa 0,0 l/m 1,5 km/h (1 Bft) 0,00 h 0,03 h 2,6 km/h (1 Bft)
21.10.2011 08:00 15,6 C 0,8 C 0,0 UV-I 0,0 C 47 % 91 % 0 % 1026,3 hPa 0,0 l/m 4,0 km/h (1 Bft) 0,00 h 0,00 h 5,1 km/h (1 Bft)
21.10.2011 09:00 15,6 C 1,4 C 0,0 UV-I 1,3 C 47 % 91 % 35 % 1026,7 hPa 0,0 l/m 4,7 km/h (1 Bft) 0,37 h 0,00 h 6,7 km/h (2 Bft)
21.10.2011 10:00 15,6 C 3,6 C 0,3 UV-I 5,0 C 47 % 91 % 100 % 1027,2 hPa 0,0 l/m 6,3 km/h (2 Bft) 1,00 h 0,00 h 6,5 km/h (2 Bft)
21.10.2011 11:00 15,8 C 6,6 C 0,6 UV-I 6,3 C 47 % 87 % 100 % 1027,3 hPa 0,0 l/m 4,9 km/h (1 Bft) 1,00 h 0,00 h 6,7 km/h (2 Bft)
21.10.2011 12:00 16,1 C 9,4 C 1,9 UV-I 6,6 C 47 % 77 % 100 % 1027,1 hPa 0,0 l/m 4,4 km/h (1 Bft) 1,00 h 0,00 h 6,0 km/h (2 Bft)
21.10.2011 13:00 16,8 C 11,4 C 2,9 UV-I 6,2 C 44 % 62 % 100 % 1027,0 hPa 0,0 l/m 4,7 km/h (1 Bft) 1,00 h 0,00 h 6,4 km/h (2 Bft)
21.10.2011 14:00 18,0 C 11,8 C 2,3 UV-I 5,0 C 40 % 57 % 100 % 1027,1 hPa 0,0 l/m 4,8 km/h (1 Bft) 1,00 h 0,00 h 6,5 km/h (2 Bft)
21.10.2011 15:00 18,9 C 12,6 C 1,6 UV-I 5,1 C 38 % 55 % 100 % 1026,6 hPa 0,0 l/m 3,4 km/h (1 Bft) 1,00 h 0,00 h 3,5 km/h (1 Bft)
21.10.2011 16:00 19,5 C 12,6 C 0,6 UV-I 3,9 C 37 % 53 % 99 % 1026,1 hPa 0,0 l/m 1,7 km/h (1 Bft) 1,00 h 0,00 h 1,8 km/h (1 Bft)
21.10.2011 17:00 19,4 C 11,1 C 0,0 UV-I 1,2 C 37 % 57 % 35 % 1025,8 hPa 0,0 l/m 0,5 km/h (0 Bft) 0,43 h 0,00 h 0,4 km/h (0 Bft)
21.10.2011 18:00 18,3 C 9,4 C 0,0 UV-I 0,0 C 39 % 63 % 0 % 1025,0 hPa 0,0 l/m 0,0 km/h (0 Bft) 0,00 h 0,00 h 0,0 km/h (0 Bft)
21.10.2011 19:00 17,4 C 6,8 C 0,0 UV-I 0,0 C 42 % 71 % 0 % 1024,7 hPa 0,0 l/m 0,0 km/h (0 Bft) 0,00 h 0,00 h 0,0 km/h (0 Bft)
21.10.2011 20:00 16,7 C 5,1 C 0,0 UV-I 0,0 C 44 % 78 % 0 % 1025,0 hPa 0,0 l/m 0,0 km/h (0 Bft) 0,00 h 0,00 h 0,0 km/h (0 Bft)
21.10.2011 21:00 16,3 C 4,2 C 0,0 UV-I 0,0 C 45 % 82 % 0 % 1024,6 hPa 0,0 l/m 0,0 km/h (0 Bft) 0,00 h 0,00 h 0,0 km/h (0 Bft)
21.10.2011 22:00 16,0 C 3,6 C 0,0 UV-I 0,0 C 46 % 84 % 0 % 1024,9 hPa 0,0 l/m 0,1 km/h (0 Bft) 0,00 h 0,00 h 0,6 km/h (0 Bft)
21.10.2011 23:00 15,7 C 4,1 C 0,0 UV-I 0,0 C 46 % 87 % 0 % 1024,5 hPa 0,0 l/m 2,7 km/h (1 Bft) 0,00 h 0,00 h 3,6 km/h (1 Bft)
22.10.2011 00:00 15,5 C 4,3 C 0,0 UV-I 0,0 C 47 % 86 % 0 % 1024,2 hPa 0,0 l/m 1,9 km/h (1 Bft) 0,00 h 0,03 h 3,3 km/h (1 Bft)
22.10.2011 01:00 15,4 C 3,7 C 0,0 UV-I 0,0 C 47 % 87 % 0 % 1024,1 hPa 0,0 l/m 1,3 km/h (1 Bft) 0,00 h 0,00 h 2,0 km/h (1 Bft)
22.10.2011 02:00 15,3 C 3,5 C 0,0 UV-I 0,0 C 47 % 88 % 0 % 1023,9 hPa 0,0 l/m 3,0 km/h (1 Bft) 0,00 h 0,00 h 4,3 km/h (1 Bft)
22.10.2011 03:00 15,0 C 3,2 C 0,0 UV-I 0,0 C 47 % 88 % 0 % 1023,4 hPa 0,0 l/m 3,8 km/h (1 Bft) 0,00 h 0,07 h 4,6 km/h (1 Bft)
22.10.2011 04:00 15,0 C 2,9 C 0,0 UV-I 0,0 C 48 % 89 % 0 % 1023,1 hPa 0,0 l/m 2,1 km/h (1 Bft) 0,00 h 0,03 h 3,4 km/h (1 Bft)
22.10.2011 05:00 14,6 C 2,7 C 0,0 UV-I 0,0 C 47 % 90 % 0 % 1022,5 hPa 0,0 l/m 5,1 km/h (1 Bft) 0,00 h 0,03 h 7,0 km/h (2 Bft)
22.10.2011 06:00 14,4 C 2,4 C 0,0 UV-I 0,0 C 48 % 90 % 0 % 1022,2 hPa 0,0 l/m 5,1 km/h (1 Bft) 0,00 h 0,10 h 5,8 km/h (2 Bft)
22.10.2011 07:00 14,1 C 2,3 C 0,0 UV-I 0,0 C 47 % 91 % 0 % 1022,0 hPa 0,0 l/m 6,9 km/h (2 Bft) 0,00 h 0,00 h 7,5 km/h (2 Bft)
22.10.2011 08:00 14,2 C 2,0 C 0,0 UV-I 0,0 C 47 % 91 % 0 % 1021,9 hPa 0,0 l/m 7,6 km/h (2 Bft) 0,00 h 0,07 h 9,4 km/h (2 Bft)
22.10.2011 09:00 14,6 C 2,4 C 0,0 UV-I 0,1 C 47 % 92 % 3 % 1021,8 hPa 0,0 l/m 7,7 km/h (2 Bft) 0,00 h 0,00 h 10,0 km/h (2 Bft)
22.10.2011 10:00 14,8 C 3,7 C 0,2 UV-I 3,9 C 47 % 90 % 93 % 1021,5 hPa 0,0 l/m 8,3 km/h (2 Bft) 0,93 h 0,00 h 9,1 km/h (2 Bft)
22.10.2011 11:00 14,9 C 5,7 C 0,5 UV-I 5,2 C 47 % 86 % 100 % 1021,1 hPa 0,0 l/m 8,4 km/h (2 Bft) 1,00 h 0,00 h 10,1 km/h (2 Bft)
22.10.2011 12:00 15,3 C 7,8 C 1,7 UV-I 5,1 C 47 % 78 % 100 % 1020,5 hPa 0,0 l/m 10,1 km/h (2 Bft) 1,00 h 0,00 h 12,0 km/h (2 Bft)
22.10.2011 13:00 16,2 C 9,6 C 3,0 UV-I 4,7 C 46 % 68 % 100 % 1020,1 hPa 0,0 l/m 11,6 km/h (2 Bft) 1,00 h 0,00 h 13,0 km/h (3 Bft)
22.10.2011 14:00 17,8 C 11,3 C 2,9 UV-I 4,4 C 44 % 60 % 100 % 1020,1 hPa 0,0 l/m 11,2 km/h (2 Bft) 1,00 h 0,00 h 12,6 km/h (3 Bft)
22.10.2011 15:00 19,2 C 12,6 C 2,0 UV-I 3,8 C 40 % 53 % 100 % 1019,5 hPa 0,0 l/m 11,6 km/h (2 Bft) 1,00 h 0,00 h 15,1 km/h (3 Bft)
22.10.2011 16:00 20,1 C 12,9 C 0,6 UV-I 3,0 C 38 % 51 % 85 % 1018,8 hPa 0,0 l/m 10,9 km/h (2 Bft) 1,00 h 0,00 h 11,5 km/h (2 Bft)
22.10.2011 17:00 19,9 C 11,7 C 0,1 UV-I 1,0 C 38 % 54 % 30 % 1018,0 hPa 0,0 l/m 7,7 km/h (2 Bft) 0,37 h 0,00 h 8,4 km/h (2 Bft)
22.10.2011 18:00 18,7 C 10,5 C 0,0 UV-I 0,0 C 39 % 57 % 0 % 1017,2 hPa 0,0 l/m 6,3 km/h (2 Bft) 0,00 h 0,00 h 7,4 km/h (2 Bft)
22.10.2011 19:00 17,8 C 9,4 C 0,0 UV-I 0,0 C 41 % 62 % 0 % 1017,3 hPa 0,0 l/m 8,5 km/h (2 Bft) 0,00 h 0,00 h 9,1 km/h (2 Bft)
22.10.2011 20:00 17,2 C 8,5 C 0,0 UV-I 0,0 C 42 % 67 % 0 % 1017,3 hPa 0,0 l/m 11,1 km/h (2 Bft) 0,00 h 0,00 h 12,6 km/h (3 Bft)
22.10.2011 21:00 16,8 C 7,9 C 0,0 UV-I 0,0 C 42 % 68 % 0 % 1017,2 hPa 0,0 l/m 10,6 km/h (2 Bft) 0,00 h 0,00 h 12,6 km/h (3 Bft)
22.10.2011 22:00 16,5 C 7,2 C 0,0 UV-I 0,0 C 43 % 71 % 0 % 1017,2 hPa 0,0 l/m 10,0 km/h (2 Bft) 0,00 h 0,00 h 11,9 km/h (2 Bft)
22.10.2011 23:00 16,3 C 6,6 C 0,0 UV-I 0,0 C 44 % 74 % 0 % 1017,1 hPa 0,0 l/m 8,7 km/h (2 Bft) 0,00 h 0,00 h 9,9 km/h (2 Bft)
23.10.2011 00:00 16,2 C 6,2 C 0,0 UV-I 0,0 C 44 % 75 % 0 % 1016,5 hPa 0,0 l/m 8,4 km/h (2 Bft) 0,00 h 0,00 h 10,1 km/h (2 Bft)
23.10.2011 01:00 16,0 C 5,8 C 0,0 UV-I 0,0 C 45 % 77 % 0 % 1016,8 hPa 0,0 l/m 7,4 km/h (2 Bft) 0,00 h 0,00 h 8,6 km/h (2 Bft)
23.10.2011 02:00 15,9 C 5,4 C 0,0 UV-I 0,0 C 45 % 78 % 0 % 1016,8 hPa 0,0 l/m 5,9 km/h (2 Bft) 0,00 h 0,00 h 6,3 km/h (2 Bft)
23.10.2011 03:00 15,8 C 5,2 C 0,0 UV-I 0,0 C 45 % 80 % 0 % 1016,6 hPa 0,0 l/m 6,6 km/h (2 Bft) 0,00 h 0,00 h 8,5 km/h (2 Bft)
23.10.2011 04:00 15,8 C 5,1 C 0,0 UV-I 0,0 C 46 % 80 % 0 % 1016,3 hPa 0,0 l/m 7,7 km/h (2 Bft) 0,00 h 0,00 h 9,2 km/h (2 Bft)
23.10.2011 05:00 15,6 C 5,0 C 0,0 UV-I 0,0 C 46 % 81 % 0 % 1016,1 hPa 0,0 l/m 9,8 km/h (2 Bft) 0,00 h 0,00 h 11,0 km/h (2 Bft)
23.10.2011 06:00 15,6 C 4,8 C 0,0 UV-I 0,0 C 46 % 82 % 0 % 1016,0 hPa 0,0 l/m 9,9 km/h (2 Bft) 0,00 h 0,00 h 11,0 km/h (2 Bft)
23.10.2011 07:00 15,4 C 4,6 C 0,0 UV-I 0,0 C 46 % 82 % 0 % 1015,7 hPa 0,0 l/m 11,6 km/h (2 Bft) 0,00 h 0,00 h 12,6 km/h (3 Bft)
23.10.2011 08:00 15,4 C 4,4 C 0,0 UV-I 0,0 C 46 % 83 % 0 % 1016,0 hPa 0,0 l/m 11,4 km/h (2 Bft) 0,00 h 0,00 h 12,8 km/h (3 Bft)
23.10.2011 09:00 15,4 C 4,9 C 0,0 UV-I 0,8 C 46 % 83 % 22 % 1015,9 hPa 0,0 l/m 13,4 km/h (3 Bft) 0,23 h 0,00 h 14,8 km/h (3 Bft)
23.10.2011 10:00 15,4 C 6,5 C 0,3 UV-I 3,9 C 46 % 80 % 98 % 1015,6 hPa 0,0 l/m 12,5 km/h (3 Bft) 1,00 h 0,00 h 13,3 km/h (3 Bft)
23.10.2011 11:00 15,5 C 8,6 C 0,6 UV-I 4,5 C 47 % 76 % 100 % 1015,4 hPa 0,0 l/m 12,8 km/h (3 Bft) 1,00 h 0,00 h 15,1 km/h (3 Bft)
23.10.2011 12:00 15,8 C 10,8 C 1,9 UV-I 4,8 C 47 % 70 % 100 % 1015,1 hPa 0,0 l/m 10,6 km/h (2 Bft) 1,00 h 0,00 h 10,7 km/h (2 Bft)
23.10.2011 13:00 16,7 C 12,7 C 2,9 UV-I 4,8 C 47 % 65 % 100 % 1015,1 hPa 0,0 l/m 10,0 km/h (2 Bft) 1,00 h 0,00 h 11,3 km/h (2 Bft)
23.10.2011 14:00 18,5 C 14,3 C 2,7 UV-I 4,5 C 45 % 60 % 100 % 1015,5 hPa 0,0 l/m 9,4 km/h (2 Bft) 1,00 h 0,00 h 10,0 km/h (2 Bft)
23.10.2011 15:00 19,9 C 15,5 C 1,8 UV-I 4,0 C 42 % 56 % 100 % 1015,2 hPa 0,0 l/m 8,3 km/h (2 Bft) 1,00 h 0,00 h 9,2 km/h (2 Bft)
23.10.2011 16:00 20,6 C 14,9 C 0,6 UV-I 2,9 C 41 % 56 % 84 % 1015,1 hPa 0,0 l/m 10,2 km/h (2 Bft) 1,00 h 0,00 h 10,2 km/h (2 Bft)
23.10.2011 17:00 20,4 C 13,1 C 0,0 UV-I 0,9 C 40 % 60 % 25 % 1014,2 hPa 0,0 l/m 6,7 km/h (2 Bft) 0,30 h 0,00 h 7,1 km/h (2 Bft)
23.10.2011 18:00 19,5 C 11,5 C 0,0 UV-I 0,0 C 42 % 63 % 0 % 1013,3 hPa 0,0 l/m 4,3 km/h (1 Bft) 0,00 h 0,00 h 5,4 km/h (1 Bft)
23.10.2011 19:00 18,5 C 10,3 C 0,0 UV-I 0,0 C 43 % 63 % 0 % 1012,8 hPa 0,0 l/m 7,6 km/h (2 Bft) 0,00 h 0,00 h 8,5 km/h (2 Bft)
23.10.2011 20:00 18,0 C 9,7 C 0,0 UV-I 0,0 C 44 % 67 % 0 % 1012,7 hPa 0,0 l/m 9,1 km/h (2 Bft) 0,00 h 0,00 h 9,2 km/h (2 Bft)
23.10.2011 21:00 17,6 C 8,9 C 0,0 UV-I 0,0 C 45 % 71 % 0 % 1012,5 hPa 0,0 l/m 7,7 km/h (2 Bft) 0,00 h 0,00 h 8,6 km/h (2 Bft)
23.10.2011 22:00 17,3 C 8,0 C 0,0 UV-I 0,0 C 46 % 74 % 0 % 1012,4 hPa 0,0 l/m 7,2 km/h (2 Bft) 0,00 h 0,00 h 8,4 km/h (2 Bft)
23.10.2011 23:00 17,1 C 7,6 C 0,0 UV-I 0,0 C 46 % 76 % 0 % 1011,9 hPa 0,0 l/m 8,0 km/h (2 Bft) 0,00 h 0,00 h 9,1 km/h (2 Bft)
Min-Datum _ 22.10.11 21.10.11 17.10.11 17.10.11 21.10.11 22.10.11 17.10.11 18.10.11 - 17.10.11 - - 17.10.11
_ Min-Zeit 07:44 07:56 00:00 00:00 16:50 15:52 00:00 09:26 - 00:00 - - 00:00
Minimum _ 13,9 C 0,8 C 0,0 UV-I 0,0 C 36 % 50 % 0 % 1006,1 hPa - 0,0 km/h (0 Bft) - - 0,0 km/h (0 Bft)
Max-Datum _ 17.10.11 17.10.11 19.10.11 20.10.11 18.10.11 20.10.11 17.10.11 21.10.11 18.10.11 23.10.11 17.10.11 18.10.11 18.10.11
_ Max-Zeit 16:44 15:02 13:44 13:06 10:52 07:20 10:08 10:46 11:44 09:34 10:02 10:22 09:32
Maximum _ 21,3 C 17,3 C 3,8 UV-I 7,6 C 57 % 92 % 100 % 1027,5 hPa 1,6 l/m 16,1 km/h
O-SO (3 Bft)
0,03 h 0,03 h 41,8 km/h
S (6 Bft)
Durchschnitt _ 17,5 C 8,3 C 0,3 UV-I 1,1 C 48 % 80 % 23 % 1018,4 hPa #5,9 l/m 4,4 km/h (1 Bft) #35:26 h #6:58 h 5,3 km/h (1 Bft)
© 2012 W. Hausmann